createdAt,value
2022-11-05T00:04:34.020Z,37.15
2022-11-05T00:09:41.224Z,37.20
2022-11-05T00:14:48.377Z,37.16
2022-11-05T00:19:55.632Z,37.20
2022-11-05T00:25:03.012Z,37.19
2022-11-05T00:30:10.203Z,37.22
2022-11-05T00:35:17.402Z,37.28
2022-11-05T00:40:24.723Z,37.30
2022-11-05T00:45:31.780Z,37.24
2022-11-05T00:50:38.981Z,37.23
2022-11-05T00:55:46.165Z,37.22
2022-11-05T01:00:53.362Z,37.21
2022-11-05T01:06:00.538Z,37.22
2022-11-05T01:11:07.770Z,37.31
2022-11-05T01:16:14.965Z,37.27
2022-11-05T01:21:22.171Z,37.37
2022-11-05T01:26:29.556Z,37.05
2022-11-05T01:31:36.774Z,36.92
2022-11-05T01:36:43.977Z,36.79
2022-11-05T01:41:51.274Z,36.82
2022-11-05T01:46:58.490Z,36.80
2022-11-05T01:52:05.746Z,36.80
2022-11-05T01:57:13.092Z,36.79
2022-11-05T02:02:20.616Z,36.80
2022-11-05T02:07:27.773Z,36.87
2022-11-05T02:12:35.060Z,36.89
2022-11-05T02:17:42.336Z,36.94
2022-11-05T02:22:49.575Z,36.98
2022-11-05T02:27:56.933Z,37.07
2022-11-05T02:33:04.044Z,37.17
2022-11-05T02:38:11.281Z,37.24
2022-11-05T02:43:18.636Z,37.33
2022-11-05T02:48:25.930Z,37.34
2022-11-05T02:53:33.189Z,37.39
2022-11-05T02:58:40.553Z,37.47
2022-11-05T03:03:47.856Z,37.52
2022-11-05T03:08:55.186Z,37.59
2022-11-05T03:14:02.415Z,37.63
2022-11-05T03:19:09.617Z,37.61
2022-11-05T03:24:16.827Z,37.68
2022-11-05T03:29:24.055Z,37.70
2022-11-05T03:34:31.180Z,37.73
2022-11-05T03:39:38.509Z,37.75
2022-11-05T03:44:45.882Z,37.75
2022-11-05T03:49:53.078Z,37.77
2022-11-05T03:55:00.261Z,37.85
2022-11-05T04:00:07.589Z,37.85
2022-11-05T04:05:14.755Z,37.86
2022-11-05T04:10:21.955Z,37.93
2022-11-05T04:15:29.486Z,37.95
2022-11-05T04:20:36.628Z,37.99
2022-11-05T04:25:43.848Z,38.03
2022-11-05T04:30:51.336Z,38.06
2022-11-05T04:35:58.578Z,38.08
2022-11-05T04:41:05.847Z,38.12
2022-11-05T04:46:13.132Z,38.11
2022-11-05T04:51:20.371Z,38.11
2022-11-05T04:56:27.571Z,38.11
2022-11-05T05:01:35.115Z,38.11
2022-11-05T05:06:45.216Z,38.14
2022-11-05T05:11:52.573Z,38.14
2022-11-05T05:17:00.107Z,38.10
2022-11-05T05:22:07.230Z,38.17
2022-11-05T05:27:14.444Z,38.19
2022-11-05T05:32:21.798Z,38.18
2022-11-05T05:37:28.955Z,38.19
2022-11-05T05:42:41.750Z,38.20
2022-11-05T05:47:43.414Z,38.23
2022-11-05T05:52:50.776Z,38.16
2022-11-05T05:57:58.010Z,38.21
2022-11-05T06:03:05.465Z,38.26
2022-11-05T06:08:12.537Z,38.26
2022-11-05T06:13:19.801Z,38.26
2022-11-05T06:18:27.104Z,38.31
2022-11-05T06:23:34.319Z,38.36
2022-11-05T06:28:41.677Z,38.32
2022-11-05T06:33:48.975Z,38.35
2022-11-05T06:38:56.226Z,38.33
2022-11-05T06:44:03.401Z,38.17
2022-11-05T06:49:12.340Z,38.08
2022-11-05T06:54:19.704Z,38.01
2022-11-05T06:59:26.974Z,37.96
2022-11-05T07:04:34.167Z,37.92
2022-11-05T07:09:41.436Z,37.87
2022-11-05T07:14:48.725Z,37.83
2022-11-05T07:19:56.009Z,37.78
2022-11-05T07:25:03.071Z,37.78
2022-11-05T07:30:10.340Z,37.71
2022-11-05T07:35:17.529Z,37.72
2022-11-05T07:40:24.744Z,37.70
2022-11-05T07:45:31.998Z,37.67
2022-11-05T07:50:39.269Z,37.68
2022-11-05T07:55:46.484Z,37.66
2022-11-05T08:00:53.797Z,37.65
2022-11-05T08:06:00.932Z,37.63
2022-11-05T08:11:08.078Z,37.63
2022-11-05T08:16:15.299Z,37.60
2022-11-05T08:21:22.522Z,37.53
2022-11-05T08:26:29.656Z,37.49
2022-11-05T08:31:36.896Z,37.46
2022-11-05T08:36:44.201Z,37.45
2022-11-05T08:41:51.378Z,37.42
2022-11-05T08:46:59.225Z,37.42
2022-11-05T08:52:06.452Z,37.36
2022-11-05T08:57:13.651Z,37.37
2022-11-05T09:02:21.095Z,37.36
2022-11-05T09:07:28.134Z,37.36
2022-11-05T09:12:36.153Z,37.34
2022-11-05T09:17:43.329Z,37.39
2022-11-05T09:22:50.666Z,37.38
2022-11-05T09:27:57.865Z,37.43
2022-11-05T09:33:05.113Z,37.40
2022-11-05T09:38:12.395Z,37.40
2022-11-05T09:43:19.595Z,37.45
2022-11-05T09:48:26.844Z,37.45
2022-11-05T09:53:34.071Z,37.46
2022-11-05T09:58:41.333Z,37.44
2022-11-05T10:03:48.635Z,37.48
2022-11-05T10:08:55.941Z,37.45
2022-11-05T10:14:03.094Z,37.47
2022-11-05T10:19:10.341Z,37.69
2022-11-05T10:24:17.573Z,37.64
2022-11-05T10:29:24.719Z,37.34
2022-11-05T10:34:31.902Z,37.47
2022-11-05T10:39:39.159Z,37.51
2022-11-05T10:44:46.336Z,37.49
2022-11-05T10:49:53.581Z,37.49
2022-11-05T10:55:00.869Z,37.79
2022-11-05T11:00:08.046Z,37.67
2022-11-05T11:05:15.269Z,37.54
2022-11-05T11:10:22.496Z,37.31
2022-11-05T11:15:29.681Z,37.11
2022-11-05T11:20:36.859Z,36.97
2022-11-05T11:25:44.077Z,36.67
2022-11-05T11:30:51.216Z,36.58
2022-11-05T11:35:58.443Z,36.35
2022-11-05T11:41:05.712Z,36.15
2022-11-05T11:46:15.102Z,35.30
2022-11-05T11:51:19.993Z,35.42
2022-11-05T11:56:27.296Z,35.36
2022-11-05T12:01:34.428Z,35.12
2022-11-05T12:06:41.605Z,34.74
2022-11-05T12:11:48.910Z,34.62
2022-11-05T12:16:56.049Z,34.58
2022-11-05T12:22:03.422Z,34.52
2022-11-05T12:27:10.652Z,34.02
2022-11-05T12:32:17.908Z,33.34
2022-11-05T12:37:25.050Z,32.91
2022-11-05T12:42:32.313Z,32.81
2022-11-05T12:47:39.469Z,33.10
2022-11-05T12:52:46.701Z,33.60
2022-11-05T12:57:54.054Z,33.58
2022-11-05T13:03:01.140Z,34.14
2022-11-05T13:08:08.389Z,35.39
2022-11-05T13:13:15.652Z,34.81
2022-11-05T13:18:22.839Z,34.96
2022-11-05T13:23:30.292Z,34.83
2022-11-05T13:28:37.698Z,34.96
2022-11-05T13:33:44.916Z,35.74
2022-11-05T13:38:52.317Z,35.02
2022-11-05T13:43:59.711Z,35.32
2022-11-05T13:49:06.910Z,35.15
2022-11-05T13:54:14.065Z,34.85
2022-11-05T13:59:21.369Z,35.83
2022-11-05T14:04:28.549Z,35.00
2022-11-05T14:09:35.916Z,34.55
2022-11-05T14:14:43.134Z,34.33
2022-11-05T14:19:51.068Z,35.15
2022-11-05T14:24:58.255Z,34.56
2022-11-05T14:30:05.468Z,34.35
2022-11-05T14:35:13.816Z,34.25
2022-11-05T14:40:21.056Z,34.03
2022-11-05T14:45:28.275Z,34.06
2022-11-05T14:50:35.447Z,34.14
2022-11-05T14:55:42.649Z,35.51
2022-11-05T15:00:50.073Z,35.33
2022-11-05T15:05:57.424Z,35.18
2022-11-05T15:11:04.676Z,35.01
2022-11-05T15:16:11.971Z,35.02
2022-11-05T15:21:19.416Z,34.96
2022-11-05T15:26:26.800Z,34.96
2022-11-05T15:31:34.177Z,34.94
2022-11-05T15:36:41.985Z,34.94
2022-11-05T15:41:49.127Z,35.08
2022-11-05T15:46:56.761Z,33.93
2022-11-05T15:52:04.346Z,33.74
2022-11-05T15:57:11.965Z,33.56
2022-11-05T16:02:19.552Z,33.90
2022-11-05T16:07:26.689Z,34.35
2022-11-05T16:12:33.942Z,33.96
2022-11-05T16:17:41.528Z,32.76
2022-11-05T16:22:48.979Z,32.19
2022-11-05T16:27:56.218Z,34.26
2022-11-05T16:33:03.385Z,34.08
2022-11-05T16:38:10.875Z,34.46
2022-11-05T16:43:18.940Z,34.06
2022-11-05T16:48:26.184Z,34.44
2022-11-05T16:53:33.371Z,34.93
2022-11-05T16:58:40.750Z,34.66
2022-11-05T17:03:48.413Z,34.63
2022-11-05T17:08:55.900Z,34.44
2022-11-05T17:14:03.204Z,34.23
2022-11-05T17:19:10.947Z,33.86
2022-11-05T17:24:18.644Z,33.76
2022-11-05T17:29:26.196Z,33.75
2022-11-05T17:34:33.725Z,33.78
2022-11-05T17:39:41.220Z,33.88
2022-11-05T17:44:48.729Z,33.95
2022-11-05T17:49:56.318Z,34.21
2022-11-05T17:55:03.819Z,34.12
2022-11-05T18:00:11.431Z,33.99
2022-11-05T18:05:19.301Z,33.95
2022-11-05T18:10:26.864Z,33.96
2022-11-05T18:15:34.584Z,33.92
2022-11-05T18:20:42.320Z,33.92
2022-11-05T18:25:52.883Z,33.47
2022-11-05T18:31:00.600Z,33.69
2022-11-05T18:36:08.218Z,33.65
2022-11-05T18:41:15.929Z,33.56
2022-11-05T18:46:51.219Z,33.49
2022-11-05T18:51:31.392Z,33.36
2022-11-05T18:56:38.979Z,33.29
2022-11-05T19:01:46.845Z,33.14
2022-11-05T19:06:54.453Z,32.98
2022-11-05T19:12:01.797Z,32.96
2022-11-05T19:17:09.339Z,32.98
2022-11-05T19:22:17.142Z,33.00
2022-11-05T19:27:24.623Z,32.96
2022-11-05T19:32:32.188Z,32.85
2022-11-05T19:37:39.914Z,32.88
2022-11-05T19:42:47.358Z,33.04
2022-11-05T19:47:54.640Z,33.08
2022-11-05T19:53:02.163Z,33.16
2022-11-05T19:58:10.250Z,33.15
2022-11-05T20:03:17.144Z,33.05
2022-11-05T20:08:24.677Z,32.97
2022-11-05T20:13:32.075Z,32.89
2022-11-05T20:18:39.784Z,32.72
2022-11-05T20:23:47.554Z,32.66
2022-11-05T20:28:55.114Z,32.43
2022-11-05T20:34:02.747Z,32.42
2022-11-05T20:39:10.475Z,32.21
2022-11-05T20:44:17.962Z,32.15
2022-11-05T20:49:26.118Z,31.99
2022-11-05T20:54:33.101Z,32.00
2022-11-05T20:59:40.599Z,31.87
2022-11-05T21:04:48.215Z,31.93
2022-11-05T21:09:55.860Z,31.72
2022-11-05T21:15:03.437Z,31.64
2022-11-05T21:20:11.055Z,31.71
2022-11-05T21:25:18.524Z,31.70
2022-11-05T21:30:26.299Z,31.49
2022-11-05T21:35:33.583Z,31.61
2022-11-05T21:40:41.042Z,31.49
2022-11-05T21:45:48.381Z,31.38
2022-11-05T21:50:55.674Z,31.51
2022-11-05T21:56:02.998Z,31.23
2022-11-05T22:01:10.257Z,31.27
2022-11-05T22:06:17.497Z,31.08
2022-11-05T22:11:24.810Z,30.98
2022-11-05T22:16:32.268Z,30.85
2022-11-05T22:21:39.544Z,30.92
2022-11-05T22:26:46.835Z,31.33
2022-11-05T22:31:54.036Z,32.15
2022-11-05T22:37:01.217Z,31.82
2022-11-05T22:42:09.088Z,32.04
2022-11-05T22:47:15.749Z,31.44
2022-11-05T22:52:22.951Z,31.15
2022-11-05T22:57:30.256Z,30.48
2022-11-05T23:02:37.677Z,30.41
2022-11-05T23:07:44.717Z,30.00
2022-11-05T23:12:51.951Z,29.75
2022-11-05T23:17:59.126Z,29.54
2022-11-05T23:23:06.347Z,29.44
2022-11-05T23:28:13.956Z,29.37
2022-11-05T23:33:20.839Z,29.37
2022-11-05T23:38:28.041Z,29.04
2022-11-05T23:43:35.301Z,29.19
2022-11-05T23:48:42.428Z,29.35
2022-11-05T23:53:49.628Z,30.39
2022-11-05T23:58:56.781Z,30.51
